createdAt,value
2022-08-09T00:00:00.491Z,1.00
2022-08-09T00:02:32.383Z,0.90
2022-08-09T00:06:11.852Z,1.00
2022-08-09T00:07:49.128Z,1.02
2022-08-09T00:10:18.179Z,1.10
2022-08-09T00:12:52.821Z,0.90
2022-08-09T00:15:26.406Z,0.90
2022-08-09T00:18:10.950Z,1.05
2022-08-09T00:20:48.312Z,1.13
2022-08-09T00:23:54.768Z,1.00
2022-08-09T00:26:05.795Z,1.25
2022-08-09T00:28:34.639Z,1.00
2022-08-09T00:31:30.517Z,0.90
2022-08-09T00:33:51.957Z,0.80
2022-08-09T00:36:22.248Z,0.70
2022-08-09T00:38:54.827Z,0.80
2022-08-09T00:44:16.317Z,1.13
2022-08-09T00:44:20.129Z,1.10
2022-08-09T00:46:57.415Z,1.00
2022-08-09T00:49:33.364Z,0.90
2022-08-09T00:52:05.084Z,0.80
2022-08-09T00:54:35.298Z,0.80
2022-08-09T00:57:08.779Z,1.00
2022-08-09T00:59:41.366Z,0.90
2022-08-09T01:02:13.687Z,0.95
2022-08-09T01:04:44.808Z,0.95
2022-08-09T01:07:38.139Z,1.02
2022-08-09T01:10:14.136Z,0.90
2022-08-09T01:12:43.938Z,1.00
2022-08-09T01:15:17.580Z,0.80
2022-08-09T01:17:47.048Z,0.90
2022-08-09T01:20:20.217Z,0.90
2022-08-09T01:23:04.408Z,1.00
2022-08-09T01:26:04.065Z,0.90
2022-08-09T01:28:33.668Z,0.98
2022-08-09T01:31:02.787Z,0.85
2022-08-09T01:33:38.011Z,0.80
2022-08-09T01:36:08.069Z,1.00
2022-08-09T01:38:38.384Z,0.75
2022-08-09T01:41:10.253Z,0.77
2022-08-09T01:43:50.183Z,0.90
2022-08-09T01:46:25.215Z,0.80
2022-08-09T01:48:54.673Z,0.90
2022-08-09T01:51:23.202Z,0.98
2022-08-09T01:53:58.045Z,0.88
2022-08-09T01:56:27.683Z,0.90
2022-08-09T01:58:57.547Z,0.90
2022-08-09T02:01:57.614Z,1.00
2022-08-09T02:04:14.329Z,0.97
2022-08-09T02:07:02.623Z,0.77
2022-08-09T02:09:42.014Z,0.93
2022-08-09T02:12:13.454Z,1.23
2022-08-09T02:14:51.831Z,0.83
2022-08-09T02:17:59.440Z,0.97
2022-08-09T02:20:08.432Z,0.90
2022-08-09T02:22:38.105Z,1.07
2022-08-09T02:25:09.070Z,0.90
2022-08-09T02:27:43.267Z,0.90
2022-08-09T02:30:27.420Z,1.02
2022-08-09T02:32:56.049Z,1.02
2022-08-09T02:36:01.823Z,1.00
2022-08-09T02:38:22.133Z,1.00
2022-08-09T02:40:58.735Z,0.80
2022-08-09T02:43:28.759Z,0.90
2022-08-09T02:45:58.791Z,0.93
2022-08-09T02:48:30.842Z,0.80
2022-08-09T02:51:01.714Z,1.10
2022-08-09T02:53:32.480Z,1.27
2022-08-09T02:56:04.270Z,1.00
2022-08-09T02:58:37.589Z,1.30
2022-08-09T03:01:07.965Z,0.90
2022-08-09T03:03:48.057Z,1.20
2022-08-09T03:06:25.168Z,1.20
2022-08-09T03:08:55.515Z,0.93
2022-08-09T03:12:04.649Z,1.00
2022-08-09T03:14:12.645Z,1.20
2022-08-09T03:16:47.489Z,1.10
2022-08-09T03:19:59.616Z,0.95
2022-08-09T03:22:04.287Z,1.10
2022-08-09T03:24:51.025Z,1.00
2022-08-09T03:27:21.378Z,1.20
2022-08-09T03:30:00.816Z,1.17
2022-08-09T03:32:31.067Z,1.23
2022-08-09T03:34:59.317Z,1.20
2022-08-09T03:37:55.774Z,1.20
2022-08-09T03:40:14.538Z,1.17
2022-08-09T03:42:45.814Z,1.10
2022-08-09T03:45:15.642Z,1.20
2022-08-09T03:47:46.739Z,1.00
2022-08-09T03:50:27.640Z,1.17
2022-08-09T03:53:00.966Z,1.07
2022-08-09T03:55:36.263Z,1.10
2022-08-09T03:58:16.645Z,1.20
2022-08-09T04:00:45.759Z,1.20
2022-08-09T04:03:24.535Z,0.93
2022-08-09T04:06:04.702Z,1.10
2022-08-09T04:08:32.455Z,1.00
2022-08-09T04:11:01.676Z,1.17
2022-08-09T04:14:36.690Z,1.20
2022-08-09T04:16:21.466Z,1.13
2022-08-09T04:18:51.309Z,1.40
2022-08-09T04:21:19.242Z,1.13
2022-08-09T04:23:53.788Z,1.00
2022-08-09T04:26:23.444Z,1.50
2022-08-09T04:28:52.373Z,1.20
2022-08-09T04:31:26.425Z,1.23
2022-08-09T04:34:06.886Z,1.30
2022-08-09T04:36:34.534Z,1.10
2022-08-09T04:39:03.297Z,1.17
2022-08-09T04:41:32.202Z,1.20
2022-08-09T04:44:06.937Z,1.00
2022-08-09T04:46:57.023Z,1.10
2022-08-09T04:49:40.628Z,0.90
2022-08-09T04:52:18.481Z,1.00
2022-08-09T04:54:53.943Z,1.20
2022-08-09T04:57:24.386Z,1.00
2022-08-09T04:59:53.436Z,1.10
2022-08-09T05:02:21.121Z,1.00
2022-08-09T05:04:55.707Z,1.20
2022-08-09T05:07:23.701Z,1.07
2022-08-09T05:09:51.906Z,0.90
2022-08-09T05:12:22.518Z,1.10
2022-08-09T05:14:50.562Z,1.23
2022-08-09T05:18:50.798Z,1.20
2022-08-09T05:20:09.604Z,1.10
2022-08-09T05:23:56.722Z,1.10
2022-08-09T05:25:26.570Z,1.10
2022-08-09T05:28:00.583Z,1.20
2022-08-09T05:30:31.360Z,1.00
2022-08-09T05:32:59.422Z,1.10
2022-08-09T05:35:29.059Z,1.20
2022-08-09T05:37:59.757Z,1.20
2022-08-09T05:40:28.866Z,1.30
2022-08-09T05:42:56.816Z,1.13
2022-08-09T05:45:25.051Z,1.40
2022-08-09T05:47:56.805Z,0.90
2022-08-09T05:50:43.959Z,1.10
2022-08-09T05:53:21.574Z,1.10
2022-08-09T05:56:01.557Z,1.10
2022-08-09T05:58:29.452Z,1.00
2022-08-09T06:00:57.010Z,1.00
2022-08-09T06:03:25.770Z,0.95
2022-08-09T06:06:12.566Z,0.95
2022-08-09T06:08:40.183Z,1.10
2022-08-09T06:11:16.700Z,1.15
2022-08-09T06:13:45.811Z,0.88
2022-08-09T06:16:15.052Z,1.00
2022-08-09T06:18:43.957Z,1.38
2022-08-09T06:21:12.812Z,0.90
2022-08-09T06:23:55.745Z,0.90
2022-08-09T06:26:28.487Z,0.93
2022-08-09T06:28:59.927Z,0.82
2022-08-09T06:31:30.999Z,0.90
2022-08-09T06:34:06.694Z,0.80
2022-08-09T06:36:36.236Z,0.70
2022-08-09T06:39:09.318Z,0.80
2022-08-09T06:41:40.572Z,0.90
2022-08-09T06:44:26.829Z,0.90
2022-08-09T06:46:55.202Z,0.80
2022-08-09T06:49:44.738Z,0.70
2022-08-09T06:52:15.885Z,1.00
2022-08-09T06:54:43.663Z,0.73
2022-08-09T06:57:11.966Z,0.77
2022-08-09T07:00:54.026Z,0.80
2022-08-09T07:02:30.857Z,0.90
2022-08-09T07:04:59.830Z,1.00
2022-08-09T07:08:00.909Z,0.90
2022-08-09T07:10:22.414Z,0.80
2022-08-09T07:12:57.711Z,0.75
2022-08-09T07:16:35.380Z,0.70
2022-08-09T07:18:14.276Z,0.77
2022-08-09T07:20:43.377Z,0.70
2022-08-09T07:23:18.620Z,0.80
2022-08-09T07:25:47.238Z,0.60
2022-08-09T07:28:19.338Z,0.50
2022-08-09T07:30:55.826Z,0.57
2022-08-09T07:33:23.445Z,0.60
2022-08-09T07:35:53.885Z,0.60
2022-08-09T07:38:23.963Z,0.52
2022-08-09T07:41:11.443Z,0.70
2022-08-09T07:43:41.450Z,0.60
2022-08-09T07:46:19.613Z,0.50
2022-08-09T07:48:52.806Z,0.50
2022-08-09T07:52:05.974Z,0.60
2022-08-09T07:54:15.516Z,0.57
2022-08-09T07:56:49.677Z,0.47
2022-08-09T07:59:25.314Z,0.50
2022-08-09T08:02:01.876Z,0.50
2022-08-09T08:04:32.082Z,0.50
2022-08-09T08:07:27.095Z,0.40
2022-08-09T08:10:04.558Z,0.60
2022-08-09T08:12:36.783Z,0.50
2022-08-09T08:15:04.979Z,0.40
2022-08-09T08:17:52.184Z,0.40
2022-08-09T08:20:28.809Z,0.40
2022-08-09T08:23:01.378Z,0.30
2022-08-09T08:25:43.984Z,0.40
2022-08-09T08:28:14.447Z,0.45
2022-08-09T08:30:42.811Z,0.38
2022-08-09T08:33:11.962Z,0.40
2022-08-09T08:35:59.542Z,0.50
2022-08-09T08:38:28.461Z,0.60
2022-08-09T08:40:57.848Z,0.52
2022-08-09T08:43:27.087Z,0.47
2022-08-09T08:46:03.770Z,0.50
2022-08-09T08:48:37.596Z,0.50
2022-08-09T08:51:06.068Z,0.50
2022-08-09T08:53:37.179Z,0.50
2022-08-09T08:56:07.954Z,0.50
2022-08-09T08:58:52.777Z,0.50
2022-08-09T09:01:24.995Z,0.57
2022-08-09T09:04:03.948Z,0.65
2022-08-09T09:06:32.474Z,0.70
2022-08-09T09:09:00.946Z,0.50
2022-08-09T09:11:38.422Z,0.60
2022-08-09T09:14:10.774Z,1.05
2022-08-09T09:16:43.397Z,0.65
2022-08-09T09:22:11.918Z,0.70
2022-08-09T09:24:43.263Z,0.70
2022-08-09T09:28:02.878Z,0.63
2022-08-09T09:30:16.448Z,0.75
2022-08-09T09:33:13.925Z,0.70
2022-08-09T09:35:53.164Z,0.60
2022-08-09T09:38:40.682Z,0.55
2022-08-09T09:41:10.738Z,0.70
2022-08-09T09:43:41.191Z,0.63
2022-08-09T09:48:57.530Z,0.80
2022-08-09T09:51:38.642Z,0.60
2022-08-09T09:54:20.732Z,0.75
2022-08-09T09:56:53.342Z,0.70
2022-08-09T09:59:38.927Z,0.80
2022-08-09T10:02:06.589Z,0.70
2022-08-09T10:04:35.628Z,0.73
2022-08-09T10:07:10.085Z,0.90
2022-08-09T10:09:48.752Z,0.70
2022-08-09T10:12:28.581Z,0.90
2022-08-09T10:15:17.649Z,0.80
2022-08-09T10:17:57.072Z,0.70
2022-08-09T10:20:27.577Z,0.80
2022-08-09T10:23:13.562Z,0.73
2022-08-09T10:26:07.541Z,1.33
2022-08-09T10:28:29.357Z,0.90
2022-08-09T10:34:08.752Z,0.70
2022-08-09T10:36:35.458Z,0.80
2022-08-09T10:39:03.240Z,0.77
2022-08-09T10:41:33.614Z,0.70
2022-08-09T10:44:03.887Z,0.88
2022-08-09T10:46:54.294Z,0.80
2022-08-09T10:49:50.459Z,0.80
2022-08-09T10:52:20.384Z,0.90
2022-08-09T10:54:50.123Z,0.80
2022-08-09T10:57:23.289Z,0.70
2022-08-09T10:59:57.383Z,0.90
2022-08-09T11:03:17.995Z,0.70
2022-08-09T11:05:30.163Z,0.80
2022-08-09T11:07:59.536Z,0.80
2022-08-09T11:10:53.218Z,0.82
2022-08-09T11:13:49.337Z,0.90
2022-08-09T11:16:34.986Z,0.80
2022-08-09T11:19:09.405Z,0.70
2022-08-09T11:22:05.193Z,0.70
2022-08-09T11:25:03.256Z,0.70
2022-08-09T11:28:02.985Z,0.70
2022-08-09T11:30:33.031Z,0.98
2022-08-09T11:33:04.074Z,0.70
2022-08-09T11:35:49.457Z,0.80
2022-08-09T11:38:18.860Z,0.80
2022-08-09T11:40:46.635Z,0.60
2022-08-09T11:43:16.042Z,0.80
2022-08-09T11:45:54.791Z,0.98
2022-08-09T11:48:27.573Z,0.90
2022-08-09T11:51:21.232Z,0.70
2022-08-09T11:54:14.643Z,0.77
2022-08-09T11:56:54.987Z,0.80
2022-08-09T11:59:30.715Z,0.70
2022-08-09T12:02:34.591Z,0.60
2022-08-09T12:04:58.990Z,0.75
2022-08-09T12:07:41.582Z,0.60
2022-08-09T12:10:31.738Z,0.70
2022-08-09T12:12:58.451Z,0.75
2022-08-09T12:15:48.679Z,0.70
2022-08-09T12:18:17.418Z,0.60
2022-08-09T12:20:53.945Z,0.63
2022-08-09T12:23:24.722Z,0.70
2022-08-09T12:26:10.675Z,0.70
2022-08-09T12:29:10.495Z,0.80
2022-08-09T12:31:59.227Z,0.80
2022-08-09T12:34:17.839Z,0.80
2022-08-09T12:36:52.401Z,0.80
2022-08-09T12:39:28.108Z,0.93
2022-08-09T12:41:56.571Z,0.80
2022-08-09T12:44:24.784Z,0.60
2022-08-09T12:46:52.595Z,0.60
2022-08-09T12:49:21.305Z,0.60
2022-08-09T12:52:01.069Z,0.70
2022-08-09T12:54:31.220Z,0.73
2022-08-09T12:56:59.809Z,0.60
2022-08-09T12:59:57.540Z,0.80
2022-08-09T13:02:19.923Z,0.60
2022-08-09T13:05:00.409Z,0.70
2022-08-09T13:07:50.308Z,0.60
2022-08-09T13:10:19.469Z,0.60
2022-08-09T13:13:08.703Z,0.70
2022-08-09T13:15:36.467Z,0.50
2022-08-09T13:18:06.154Z,0.70
2022-08-09T13:22:33.773Z,0.65
2022-08-09T13:24:17.231Z,0.63
2022-08-09T13:26:41.677Z,0.70
2022-08-09T13:29:13.071Z,0.88
2022-08-09T13:32:16.645Z,1.10
2022-08-09T13:34:44.976Z,0.65
2022-08-09T13:37:15.068Z,0.60
2022-08-09T13:41:55.275Z,0.73
2022-08-09T13:42:53.547Z,0.73
2022-08-09T13:45:21.439Z,0.60
2022-08-09T13:47:59.506Z,0.63
2022-08-09T13:50:30.396Z,0.63
2022-08-09T13:52:59.220Z,0.70
2022-08-09T13:55:29.070Z,0.80
2022-08-09T13:57:59.631Z,0.70
2022-08-09T14:00:28.875Z,0.75
2022-08-09T14:03:04.113Z,0.70
2022-08-09T14:05:58.265Z,0.57
2022-08-09T14:08:31.394Z,0.70
2022-08-09T14:11:00.612Z,0.68
2022-08-09T14:14:24.006Z,1.10
2022-08-09T14:16:19.812Z,0.70
2022-08-09T14:18:58.272Z,0.70
2022-08-09T14:21:29.260Z,0.70
2022-08-09T14:24:01.005Z,0.80
2022-08-09T14:26:33.712Z,0.80
2022-08-09T14:29:07.774Z,0.85
2022-08-09T14:31:53.936Z,0.80
2022-08-09T14:34:30.855Z,0.80
2022-08-09T14:36:59.612Z,0.60
2022-08-09T14:39:46.609Z,0.60
2022-08-09T14:42:40.505Z,0.70
2022-08-09T14:46:57.367Z,0.80
2022-08-09T14:47:58.249Z,0.80
2022-08-09T14:50:27.294Z,0.95
2022-08-09T14:52:54.801Z,0.80
2022-08-09T14:55:22.628Z,0.90
2022-08-09T14:57:50.431Z,1.00
2022-08-09T15:00:19.506Z,0.90
2022-08-09T15:02:47.176Z,0.82
2022-08-09T15:05:16.883Z,0.77
2022-08-09T15:07:45.596Z,0.70
2022-08-09T15:10:24.785Z,0.93
2022-08-09T15:12:53.114Z,0.80
2022-08-09T15:15:22.684Z,0.90
2022-08-09T15:17:52.858Z,0.88
2022-08-09T15:21:55.865Z,0.90
2022-08-09T15:24:01.830Z,0.95
2022-08-09T15:25:57.594Z,0.77
2022-08-09T15:28:27.707Z,0.90
2022-08-09T15:31:10.397Z,0.82
2022-08-09T15:34:32.703Z,0.90
2022-08-09T15:36:30.853Z,0.80
2022-08-09T15:38:58.870Z,0.77
2022-08-09T15:41:31.343Z,0.80
2022-08-09T15:43:59.946Z,0.90
2022-08-09T15:46:33.845Z,0.80
2022-08-09T15:49:22.073Z,0.90
2022-08-09T15:52:03.360Z,0.80
2022-08-09T15:54:44.333Z,0.82
2022-08-09T15:57:19.112Z,0.88
2022-08-09T16:00:02.571Z,1.13
2022-08-09T16:02:31.476Z,1.73
2022-08-09T16:04:59.034Z,0.82
2022-08-09T16:07:30.551Z,0.90
2022-08-09T16:10:10.947Z,0.90
2022-08-09T16:12:41.525Z,0.90
2022-08-09T16:16:10.587Z,0.80
2022-08-09T16:18:09.054Z,0.80
2022-08-09T16:20:38.574Z,0.80
2022-08-09T16:23:10.234Z,0.90
2022-08-09T16:25:40.497Z,0.80
2022-08-09T16:28:12.271Z,0.90
2022-08-09T16:30:44.745Z,1.00
2022-08-09T16:33:15.946Z,1.25
2022-08-09T16:35:55.936Z,0.90
2022-08-09T16:38:26.316Z,1.02
2022-08-09T16:40:53.858Z,1.20
2022-08-09T16:43:23.206Z,1.50
2022-08-09T16:45:53.529Z,1.20
2022-08-09T16:48:39.727Z,1.30
2022-08-09T16:51:14.047Z,1.20
2022-08-09T16:54:08.963Z,1.05
2022-08-09T16:56:30.495Z,1.20
2022-08-09T16:58:58.714Z,1.20
2022-08-09T17:01:26.534Z,0.95
2022-08-09T17:03:56.496Z,1.23
2022-08-09T17:06:31.874Z,1.30
2022-08-09T17:09:17.625Z,0.90
2022-08-09T17:11:52.551Z,0.82
2022-08-09T17:14:27.571Z,1.00
2022-08-09T17:16:56.774Z,1.17
2022-08-09T17:19:47.272Z,1.30
2022-08-09T17:22:23.995Z,1.83
2022-08-09T17:25:03.055Z,1.48
2022-08-09T17:27:31.472Z,1.98
2022-08-09T17:29:59.003Z,1.70
2022-08-09T17:32:35.100Z,2.25
2022-08-09T17:35:11.392Z,2.00
2022-08-09T17:38:07.637Z,1.73
2022-08-09T17:40:28.467Z,1.88
2022-08-09T17:43:03.118Z,2.15
2022-08-09T17:46:03.287Z,1.55
2022-08-09T17:48:28.681Z,1.92
2022-08-09T17:50:59.543Z,1.50
2022-08-09T17:53:43.262Z,1.80
2022-08-09T17:56:18.263Z,1.60
2022-08-09T17:58:46.000Z,1.90
2022-08-09T18:01:15.653Z,1.65
2022-08-09T18:03:54.271Z,2.03
2022-08-09T18:06:31.052Z,1.48
2022-08-09T18:09:00.259Z,2.50
2022-08-09T18:11:27.754Z,2.00
2022-08-09T18:14:03.428Z,1.75
2022-08-09T18:16:39.363Z,1.92
2022-08-09T18:20:55.070Z,2.13
2022-08-09T18:22:17.240Z,1.70
2022-08-09T18:24:45.532Z,2.17
2022-08-09T18:27:14.166Z,1.60
2022-08-09T18:30:39.731Z,1.30
2022-08-09T18:32:54.062Z,1.77
2022-08-09T18:35:58.559Z,1.48
2022-08-09T18:38:11.858Z,1.50
2022-08-09T18:40:41.210Z,1.63
2022-08-09T18:43:08.888Z,1.55
2022-08-09T18:46:46.423Z,1.20
2022-08-09T18:48:25.578Z,1.25
2022-08-09T18:50:59.197Z,1.13
2022-08-09T18:53:31.506Z,1.10
2022-08-09T18:56:09.136Z,1.00
2022-08-09T18:58:36.906Z,0.90
2022-08-09T19:01:06.776Z,1.40
2022-08-09T19:04:01.049Z,1.30
2022-08-09T19:06:22.642Z,1.27
2022-08-09T19:08:55.242Z,1.10
2022-08-09T19:11:37.412Z,0.98
2022-08-09T19:14:06.362Z,0.98
2022-08-09T19:16:36.323Z,1.35
2022-08-09T19:19:25.360Z,1.00
2022-08-09T19:22:05.120Z,1.20
2022-08-09T19:25:11.533Z,1.17
2022-08-09T19:27:24.018Z,1.77
2022-08-09T19:30:23.811Z,1.13
2022-08-09T19:32:44.161Z,0.90
2022-08-09T19:35:11.772Z,1.05
2022-08-09T19:37:54.269Z,1.02
2022-08-09T19:40:33.933Z,0.70
2022-08-09T19:43:05.110Z,1.10
2022-08-09T19:45:40.315Z,0.85
2022-08-09T19:48:10.754Z,0.90
2022-08-09T19:50:49.234Z,0.80
2022-08-09T19:53:20.669Z,0.90
2022-08-09T19:56:01.985Z,0.90
2022-08-09T19:58:31.077Z,0.90
2022-08-09T20:01:00.279Z,0.90
2022-08-09T20:04:17.841Z,0.88
2022-08-09T20:06:23.028Z,0.90
2022-08-09T20:08:52.630Z,0.90
2022-08-09T20:11:26.767Z,1.10
2022-08-09T20:13:54.967Z,1.00
2022-08-09T20:16:35.162Z,1.05
2022-08-09T20:19:42.221Z,1.00
2022-08-09T20:21:57.401Z,1.00
2022-08-09T20:24:29.763Z,1.00
2022-08-09T20:27:05.633Z,0.80
2022-08-09T20:29:37.667Z,0.90
2022-08-09T20:32:30.153Z,0.93
2022-08-09T20:34:53.903Z,0.80
2022-08-09T20:37:22.586Z,0.90
2022-08-09T20:40:15.321Z,0.90
2022-08-09T20:42:39.391Z,0.90
2022-08-09T20:47:55.381Z,1.05
2022-08-09T20:50:47.567Z,0.82
2022-08-09T20:53:35.141Z,0.80
2022-08-09T20:56:00.601Z,1.00
2022-08-09T20:58:32.217Z,1.10
2022-08-09T21:01:14.239Z,1.10
2022-08-09T21:04:08.321Z,1.00
2022-08-09T21:06:37.348Z,0.90
2022-08-09T21:09:11.682Z,1.00
2022-08-09T21:14:31.124Z,1.05
2022-08-09T21:17:00.348Z,0.90
2022-08-09T21:20:17.973Z,0.98
2022-08-09T21:22:35.716Z,0.90
2022-08-09T21:25:21.122Z,1.20
2022-08-09T21:27:51.582Z,0.85
2022-08-09T21:30:30.383Z,1.00
2022-08-09T21:32:57.995Z,1.00
2022-08-09T21:35:26.047Z,1.00
2022-08-09T21:38:00.495Z,0.90
2022-08-09T21:40:32.573Z,1.20
2022-08-09T21:43:00.768Z,1.20
2022-08-09T21:45:30.553Z,0.90
2022-08-09T21:47:58.660Z,1.20
2022-08-09T21:50:38.353Z,1.00
2022-08-09T21:53:19.796Z,0.90
2022-08-09T21:55:55.040Z,0.90
2022-08-09T21:58:31.134Z,1.00
2022-08-09T22:01:03.540Z,0.90
2022-08-09T22:03:48.383Z,1.10
2022-08-09T22:06:26.584Z,0.95
2022-08-09T22:08:54.871Z,0.93
2022-08-09T22:12:05.750Z,0.80
2022-08-09T22:14:13.294Z,1.30
2022-08-09T22:16:43.865Z,1.00
2022-08-09T22:19:53.440Z,0.90
2022-08-09T22:21:59.447Z,0.80
2022-08-09T22:24:26.971Z,1.05
2022-08-09T22:26:55.264Z,0.90
2022-08-09T22:29:28.888Z,0.90
2022-08-09T22:32:03.467Z,1.08
2022-08-09T22:34:37.310Z,1.08
2022-08-09T22:37:07.898Z,1.13
2022-08-09T22:39:57.462Z,1.00
2022-08-09T22:42:26.396Z,1.10
2022-08-09T22:45:00.006Z,1.10
2022-08-09T22:48:13.478Z,0.95
2022-08-09T22:50:32.157Z,0.90
2022-08-09T22:52:59.842Z,1.00
2022-08-09T22:56:29.454Z,1.10
2022-08-09T22:58:20.293Z,0.85
2022-08-09T23:01:01.091Z,0.90
2022-08-09T23:04:03.445Z,0.98
2022-08-09T23:06:35.714Z,0.70
2022-08-09T23:09:03.693Z,0.88
2022-08-09T23:11:31.284Z,0.80
2022-08-09T23:13:59.569Z,0.93
2022-08-09T23:16:27.125Z,0.90
2022-08-09T23:18:55.996Z,0.85
2022-08-09T23:21:23.925Z,0.90
2022-08-09T23:24:05.619Z,1.10
2022-08-09T23:26:34.162Z,0.90
2022-08-09T23:29:01.657Z,0.80
2022-08-09T23:31:29.278Z,0.88
2022-08-09T23:33:58.139Z,0.90
2022-08-09T23:36:25.653Z,1.17
2022-08-09T23:38:53.156Z,1.13
2022-08-09T23:41:28.968Z,0.90
2022-08-09T23:43:57.456Z,0.80
2022-08-09T23:46:24.927Z,0.88
2022-08-09T23:48:52.426Z,1.00
2022-08-09T23:51:21.262Z,0.75
2022-08-09T23:53:50.464Z,0.73
2022-08-09T23:56:53.328Z,0.85
2022-08-09T23:59:07.259Z,0.90
